Terminal Aerodrome Forecast
Issued by NWS Topeka, KS

Home | Current Version | Previous Version | Text Only | Print | Product List | Glossary On
Versions: 1 2 3 4 5 6 7 8 9 10 11 12
000
FTUS43 KTOP 271700
TAFTOP
TAF
KTOP 271736Z 2718/2818 08004KT P6SM BKN100
     FM272200 11005KT P6SM OVC060
     FM281500 12007KT 3SM -SN BR SCT015 BKN025=

USA.gov is the U.S. government's official web portal to all federal, state and local government web resources and services.